Randolph, Alabama
Current Conditions -  °F | °C
As of 2:00 AM on Saturday 20 Dec 2014 (Local Time) from KEET Reporting Station
Haze Haze  
Wind Chill: 43°   Ceiling: 1500
Heat Index: 43°   Visibility: 6mi
Dew Point: 40°   Wind: 3mph
Humidity: 89%   Direction: 350°N
Pressure: 30.16"   Gusts: NA
Location:  32.9°N, 86.91°W
Report Text: KEET 200800Z AUTO 35003KT 6SM BR FEW007 OVC015 06/04 A3016 RMK AO2 T00610044
Loading
Personal Weather Stations






























Interactive Weather Map New forecast layout! Learn more

10-Day Weather Forecast

Advertisements
Track Severe Weather on mobile